Impacts TAF Board
For situational awareness. Not to be used for flight planning purposes.
IDs:

KIAH - Houston/Bush Intl, TX, US

Issued at 1135 UTC 17 Dec 2018
Updated at 1204 UTC 17 Dec 2018
Potential Impact None Slight Moderate High
Time1153Z 17/13Z 17/14Z 17/15Z 17/16Z 17/17Z 17/18Z 17/19Z 17/20Z 17/21Z 17/22Z 17/23Z 18/00Z 18/01Z>>
Type OBS PRVL PRVL PRVL PRVL PRVL PRVL PRVL PRVL PRVL PRVL PRVL PRVL PRVL
VIS 10 >6 >6 >6 >6 >6 >6 >6 >6 >6 >6 >6 >6 >6
CIG 150 150 150 150 150 150 150 150 150 150 150 150 150 150
Cover BKN OVC OVC OVC OVC OVC OVC OVC OVC OVC OVC OVC OVC OVC
FltCat VFR VFR VFR VFR VFR VFR VFR VFR VFR VFR VFR VFR VFR VFR
WX -- -- -- -- -- -- -- -- -- -- -- -- -- --
WDir VRB VRB VRB VRB VRB VRB VRB VRB VRB VRB VRB VRB VRB VRB
WSpd 0 3 3 3 3 3 3 3 3 3 3 3 3 3
WGst -- -- -- -- -- -- -- -- -- -- -- -- -- --
Raw TAF
KIAH 171135Z 1712/1818 VRB03KT P6SM OVC150
  FM180900 00000KT 3SM BR SKC
  FM181600 09003KT 6SM BR SCT015 BKN250


Raw METAR
KIAH 171153Z 00000KT 10SM BKN150 BKN250 11/11 A3025 RMK AO2 SLP245 T01110106 10128 20106 51006 $
KIAH 171053Z 24003KT 10SM OVC170 12/11 A3025 RMK AO2 SLP242 T01170111 $
KIAH 170953Z 27003KT 10SM FEW150 OVC180 12/11 A3024 RMK AO2 SLP241 T01170111 $

METAR Board
Radar Display
Forecast Discussion
For situational awareness. Not to be used for flight planning purposes.